createdAt,value
2023-06-22T00:02:21.129Z,95708.00
2023-06-22T00:04:49.940Z,95826.00
2023-06-22T00:07:20.090Z,95832.00
2023-06-22T00:09:48.999Z,95835.00
2023-06-22T00:12:17.511Z,95734.00
2023-06-22T00:14:46.557Z,95838.00
2023-06-22T00:17:15.375Z,95754.00
2023-06-22T00:19:44.276Z,95824.00
2023-06-22T00:22:13.492Z,95816.00
2023-06-22T00:24:43.442Z,95791.00
2023-06-22T00:27:12.169Z,95819.00
2023-06-22T00:29:40.825Z,95674.00
2023-06-22T00:32:09.740Z,95667.00
2023-06-22T00:34:38.543Z,95829.00
2023-06-22T00:37:07.255Z,95727.00
2023-06-22T00:39:35.838Z,95825.00
2023-06-22T00:42:07.124Z,95721.00
2023-06-22T00:44:35.675Z,95763.00
2023-06-22T00:47:05.092Z,95847.00
2023-06-22T00:49:33.941Z,95828.00
2023-06-22T00:52:02.792Z,95822.00
2023-06-22T00:54:32.327Z,95703.00
2023-06-22T00:57:01.350Z,95431.00
2023-06-22T00:59:31.551Z,95821.00
2023-06-22T01:02:02.433Z,95822.00
2023-06-22T01:04:39.943Z,95818.00
2023-06-22T01:07:24.014Z,95814.00
2023-06-22T01:10:03.464Z,95793.00
2023-06-22T01:12:39.471Z,95738.00
2023-06-22T01:15:21.239Z,95718.00
2023-06-22T01:17:54.092Z,95825.00
2023-06-22T01:20:25.566Z,95829.00
2023-06-22T01:23:13.067Z,95757.00
2023-06-22T01:25:56.076Z,95753.00
2023-06-22T01:28:50.768Z,95705.00
2023-06-22T01:31:22.672Z,95707.00
2023-06-22T01:33:59.356Z,95820.00
2023-06-22T01:36:29.780Z,95477.00
2023-06-22T01:39:01.372Z,95844.00
2023-06-22T01:41:33.651Z,95820.00
2023-06-22T01:44:07.583Z,95816.00
2023-06-22T01:46:37.601Z,95816.00
2023-06-22T01:49:07.360Z,95815.00
2023-06-22T01:51:36.322Z,95848.00
2023-06-22T01:54:05.145Z,95624.00
2023-06-22T01:56:35.193Z,95821.00
2023-06-22T01:59:14.301Z,95814.00
2023-06-22T02:01:49.785Z,95728.00
2023-06-22T02:04:28.574Z,95801.00
2023-06-22T02:07:02.009Z,95806.00
2023-06-22T02:09:34.531Z,95703.00
2023-06-22T02:12:06.077Z,95809.00
2023-06-22T02:14:38.199Z,95815.00
2023-06-22T02:17:08.890Z,95763.00
2023-06-22T02:19:39.070Z,95842.00
2023-06-22T02:22:07.959Z,95833.00
2023-06-22T02:24:36.623Z,95197.00
2023-06-22T02:27:08.077Z,95700.00
2023-06-22T02:29:38.246Z,95785.00
2023-06-22T02:32:07.913Z,95788.00
2023-06-22T02:34:37.938Z,95782.00
2023-06-22T02:37:07.379Z,95837.00
2023-06-22T02:39:36.222Z,95833.00
2023-06-22T02:42:05.397Z,95828.00
2023-06-22T02:44:33.987Z,95799.00
2023-06-22T02:47:10.646Z,95829.00
2023-06-22T02:49:39.279Z,95834.00
2023-06-22T02:52:08.275Z,95773.00
2023-06-22T02:54:37.139Z,95802.00
2023-06-22T02:57:06.892Z,95832.00
2023-06-22T02:59:35.622Z,95728.00
2023-06-22T03:02:06.314Z,95828.00
2023-06-22T03:04:35.566Z,95832.00
2023-06-22T03:07:05.118Z,95783.00
2023-06-22T03:09:35.325Z,95766.00
2023-06-22T03:12:04.670Z,95830.00
2023-06-22T03:14:33.257Z,95820.00
2023-06-22T03:17:04.388Z,95756.00
2023-06-22T03:19:34.291Z,95764.00
2023-06-22T03:22:03.316Z,95826.00
2023-06-22T03:24:31.940Z,95813.00
2023-06-22T03:27:01.477Z,95799.00
2023-06-22T03:29:31.452Z,95739.00
2023-06-22T03:32:00.571Z,95682.00
2023-06-22T03:34:30.053Z,95773.00
2023-06-22T03:37:00.232Z,95738.00
2023-06-22T03:39:28.915Z,95807.00
2023-06-22T03:41:57.420Z,95600.00
2023-06-22T03:44:25.903Z,95805.00
2023-06-22T03:46:54.452Z,95806.00
2023-06-22T03:49:23.241Z,95807.00
2023-06-22T03:51:51.879Z,95746.00
2023-06-22T03:54:21.930Z,95808.00
2023-06-22T03:56:50.503Z,95703.00
2023-06-22T03:59:19.111Z,95800.00
2023-06-22T04:01:47.796Z,95723.00
2023-06-22T04:04:16.732Z,95798.00
2023-06-22T04:06:46.076Z,95797.00
2023-06-22T04:09:15.126Z,95803.00
2023-06-22T04:11:45.342Z,95793.00
2023-06-22T04:14:14.079Z,95676.00
2023-06-22T04:16:42.660Z,95744.00
2023-06-22T04:19:17.267Z,95799.00
2023-06-22T04:21:46.836Z,95804.00
2023-06-22T04:24:15.556Z,95812.00
2023-06-22T04:26:46.694Z,95805.00
2023-06-22T04:29:17.365Z,95726.00
2023-06-22T04:31:46.437Z,95807.00
2023-06-22T04:34:17.610Z,95837.00
2023-06-22T04:36:46.413Z,95702.00
2023-06-22T04:39:15.360Z,95793.00
2023-06-22T04:41:45.438Z,95605.00
2023-06-22T04:44:14.499Z,95688.00
2023-06-22T04:46:43.489Z,95788.00
2023-06-22T04:49:12.784Z,95729.00
2023-06-22T04:51:43.641Z,95774.00
2023-06-22T04:54:12.644Z,95493.00
2023-06-22T04:56:42.265Z,95778.00
2023-06-22T04:59:14.265Z,95777.00
2023-06-22T05:01:42.984Z,95549.00
2023-06-22T05:04:12.174Z,95723.00
2023-06-22T05:06:41.481Z,95721.00
2023-06-22T05:09:10.206Z,95665.00
2023-06-22T05:11:38.870Z,95715.00
2023-06-22T05:14:08.723Z,95696.00
2023-06-22T05:16:39.683Z,95752.00
2023-06-22T05:19:08.366Z,95672.00
2023-06-22T05:21:37.285Z,95755.00
2023-06-22T05:24:07.147Z,95704.00
2023-06-22T05:26:37.391Z,95706.00
2023-06-22T05:29:06.376Z,95633.00
2023-06-22T05:31:34.995Z,95734.00
2023-06-22T05:34:05.485Z,95584.00
2023-06-22T05:36:34.553Z,95550.00
2023-06-22T05:39:17.131Z,95688.00
2023-06-22T05:41:48.222Z,95736.00
2023-06-22T05:44:17.598Z,95610.00
2023-06-22T05:46:49.691Z,95732.00
2023-06-22T05:49:19.945Z,95365.00
2023-06-22T05:51:58.000Z,95721.00
2023-06-22T05:54:28.217Z,95723.00
2023-06-22T05:56:57.266Z,95614.00
2023-06-22T05:59:26.036Z,95717.00
2023-06-22T06:01:54.818Z,95714.00
2023-06-22T06:04:25.380Z,95715.00
2023-06-22T06:06:54.234Z,95475.00
2023-06-22T06:09:23.055Z,95656.00
2023-06-22T06:11:51.761Z,95638.00
2023-06-22T06:14:21.315Z,95628.00
2023-06-22T06:16:52.047Z,95635.00
2023-06-22T06:19:21.305Z,95697.00
2023-06-22T06:21:51.699Z,95661.00
2023-06-22T06:24:20.457Z,95654.00
2023-06-22T06:26:49.583Z,95702.00
2023-06-22T06:29:20.460Z,95631.00
2023-06-22T06:31:49.506Z,95394.00
2023-06-22T06:34:18.335Z,95704.00
2023-06-22T06:36:47.259Z,95595.00
2023-06-22T06:39:17.779Z,95628.00
2023-06-22T06:41:46.629Z,95442.00
2023-06-22T06:44:15.559Z,95642.00
2023-06-22T06:46:44.305Z,95581.00
2023-06-22T06:49:13.167Z,95684.00
2023-06-22T06:51:42.149Z,95678.00
2023-06-22T06:54:11.118Z,95610.00
2023-06-22T06:56:41.389Z,95612.00
2023-06-22T06:59:10.317Z,95680.00
2023-06-22T07:01:38.893Z,95615.00
2023-06-22T07:04:07.548Z,95476.00
2023-06-22T07:06:36.321Z,95618.00
2023-06-22T07:09:05.515Z,95618.00
2023-06-22T07:11:34.349Z,95623.00
2023-06-22T07:14:04.611Z,95614.00
2023-06-22T07:16:33.985Z,95666.00
2023-06-22T07:19:02.704Z,95669.00
2023-06-22T07:21:31.373Z,95635.00
2023-06-22T07:24:00.054Z,95672.00
2023-06-22T07:26:29.018Z,95685.00
2023-06-22T07:28:57.861Z,95680.00
2023-06-22T07:31:28.928Z,95602.00
2023-06-22T07:33:57.628Z,95638.00
2023-06-22T07:36:26.156Z,95568.00
2023-06-22T07:38:54.627Z,95672.00
2023-06-22T07:41:23.936Z,95644.00
2023-06-22T07:43:52.606Z,95222.00
2023-06-22T07:46:21.415Z,95644.00
2023-06-22T07:48:52.501Z,95640.00
2023-06-22T07:51:22.952Z,95675.00
2023-06-22T07:53:51.502Z,95666.00
2023-06-22T07:56:21.429Z,95551.00
2023-06-22T07:58:50.308Z,95664.00
2023-06-22T08:01:22.283Z,95664.00
2023-06-22T08:03:53.006Z,95630.00
2023-06-22T08:06:22.436Z,95632.00
2023-06-22T08:08:51.032Z,95567.00
2023-06-22T08:11:20.064Z,95663.00
2023-06-22T08:13:48.603Z,95524.00
2023-06-22T08:16:17.424Z,95671.00
2023-06-22T08:18:47.130Z,95665.00
2023-06-22T08:21:17.233Z,95560.00
2023-06-22T08:23:46.196Z,95635.00
2023-06-22T08:26:14.739Z,95658.00
2023-06-22T08:28:43.748Z,95661.00
2023-06-22T08:31:13.526Z,95605.00
2023-06-22T08:33:49.101Z,95538.00
2023-06-22T08:36:20.405Z,95663.00
2023-06-22T08:38:51.719Z,95645.00
2023-06-22T08:41:20.819Z,95647.00
2023-06-22T08:43:49.345Z,95647.00
2023-06-22T08:46:21.312Z,95642.00
2023-06-22T08:48:50.270Z,95644.00
2023-06-22T08:51:20.575Z,95634.00
2023-06-22T08:53:49.464Z,95584.00
2023-06-22T08:56:18.203Z,95563.00
2023-06-22T08:58:46.965Z,95627.00
2023-06-22T09:01:16.588Z,95544.00
2023-06-22T09:03:45.904Z,95630.00
2023-06-22T09:06:16.011Z,95611.00
2023-06-22T09:08:46.200Z,95631.00
2023-06-22T09:11:14.986Z,95623.00
2023-06-22T09:13:43.653Z,95293.00
2023-06-22T09:16:13.029Z,95601.00
2023-06-22T09:18:41.611Z,95579.00
2023-06-22T09:21:10.352Z,95544.00
2023-06-22T09:23:38.998Z,95625.00
2023-06-22T09:26:09.754Z,95580.00
2023-06-22T09:28:38.544Z,95633.00
2023-06-22T09:31:08.084Z,95652.00
2023-06-22T09:33:37.293Z,95640.00
2023-06-22T09:36:08.412Z,95611.00
2023-06-22T09:38:37.643Z,95609.00
2023-06-22T09:41:07.019Z,95621.00
2023-06-22T09:43:37.316Z,95614.00
2023-06-22T09:46:08.374Z,95356.00
2023-06-22T09:48:39.984Z,95658.00
2023-06-22T09:51:10.008Z,95663.00
2023-06-22T09:53:39.390Z,95657.00
2023-06-22T09:56:13.812Z,95629.00
2023-06-22T09:58:45.141Z,95676.00
2023-06-22T10:01:14.154Z,95680.00
2023-06-22T10:03:43.192Z,95639.00
2023-06-22T10:06:12.044Z,95667.00
2023-06-22T10:08:41.960Z,95678.00
2023-06-22T10:11:11.504Z,95675.00
2023-06-22T10:13:40.072Z,95656.00
2023-06-22T10:16:10.139Z,95670.00
2023-06-22T10:18:38.829Z,95686.00
2023-06-22T10:21:07.480Z,95670.00
2023-06-22T10:23:36.265Z,95669.00
2023-06-22T10:26:05.071Z,95659.00
2023-06-22T10:28:33.769Z,95633.00
2023-06-22T10:31:02.546Z,95644.00
2023-06-22T10:33:32.837Z,95642.00
2023-06-22T10:36:01.450Z,95604.00
2023-06-22T10:38:30.202Z,95662.00
2023-06-22T10:40:59.401Z,95634.00
2023-06-22T10:43:30.313Z,95550.00
2023-06-22T10:45:59.025Z,95630.00
2023-06-22T10:48:27.782Z,95617.00
2023-06-22T10:50:58.162Z,95608.00
2023-06-22T10:53:26.883Z,95533.00
2023-06-22T10:55:57.469Z,95565.00
2023-06-22T10:58:26.720Z,95622.00
2023-06-22T11:00:55.556Z,95618.00
2023-06-22T11:03:24.486Z,95631.00
2023-06-22T11:05:53.432Z,95608.00
2023-06-22T11:08:23.557Z,95614.00
2023-06-22T11:10:53.876Z,95587.00
2023-06-22T11:13:22.545Z,95497.00
2023-06-22T11:15:51.485Z,95607.00
2023-06-22T11:18:20.186Z,95522.00
2023-06-22T11:20:52.201Z,95606.00
2023-06-22T11:23:23.623Z,95605.00
2023-06-22T11:25:52.264Z,95618.00
2023-06-22T11:28:20.886Z,95608.00
2023-06-22T11:30:49.494Z,95553.00
2023-06-22T11:33:18.345Z,95602.00
2023-06-22T11:35:47.092Z,95615.00
2023-06-22T11:38:16.366Z,95605.00
2023-06-22T11:40:47.157Z,95611.00
2023-06-22T11:43:16.561Z,95553.00
2023-06-22T11:45:46.790Z,95569.00
2023-06-22T11:48:15.518Z,95534.00
2023-06-22T11:50:44.426Z,95601.00
2023-06-22T11:53:13.461Z,95595.00
2023-06-22T11:55:42.192Z,95589.00
2023-06-22T11:58:13.400Z,95598.00
2023-06-22T12:00:51.000Z,95589.00
2023-06-22T12:03:22.846Z,95466.00
2023-06-22T12:05:54.616Z,95543.00
2023-06-22T12:08:25.974Z,95570.00
2023-06-22T12:10:56.130Z,95571.00
2023-06-22T12:13:26.492Z,95577.00
2023-06-22T12:15:55.061Z,95553.00
2023-06-22T12:18:23.916Z,95566.00
2023-06-22T12:20:54.173Z,95594.00
2023-06-22T12:23:23.302Z,95512.00
2023-06-22T12:25:53.797Z,95586.00
2023-06-22T12:28:24.993Z,95581.00
2023-06-22T12:30:55.489Z,95510.00
2023-06-22T12:33:24.332Z,95592.00
2023-06-22T12:35:53.556Z,95546.00
2023-06-22T12:38:22.333Z,95568.00
2023-06-22T12:40:50.988Z,95587.00
2023-06-22T12:43:20.664Z,95541.00
2023-06-22T12:45:50.041Z,95559.00
2023-06-22T12:48:20.876Z,95522.00
2023-06-22T12:50:50.476Z,95569.00
2023-06-22T12:53:19.675Z,95380.00
2023-06-22T12:55:49.068Z,95523.00
2023-06-22T12:58:17.928Z,95568.00
2023-06-22T13:00:47.060Z,95576.00
2023-06-22T13:03:15.645Z,95515.00
2023-06-22T13:05:47.465Z,95569.00
2023-06-22T13:08:16.876Z,95585.00
2023-06-22T13:10:46.235Z,95548.00
2023-06-22T13:13:15.310Z,95580.00
2023-06-22T13:15:44.907Z,95562.00
2023-06-22T13:18:14.278Z,95575.00
2023-06-22T13:20:46.771Z,95513.00
2023-06-22T13:23:15.860Z,95575.00
2023-06-22T13:25:44.856Z,95532.00
2023-06-22T13:28:27.973Z,95516.00
2023-06-22T13:30:57.995Z,95578.00
2023-06-22T13:33:29.085Z,95373.00
2023-06-22T13:35:59.087Z,95576.00
2023-06-22T13:38:27.965Z,95530.00
2023-06-22T13:40:58.956Z,95499.00
2023-06-22T13:43:29.771Z,95581.00
2023-06-22T13:45:59.877Z,95463.00
2023-06-22T13:48:29.985Z,95565.00
2023-06-22T13:50:59.941Z,95520.00
2023-06-22T13:53:28.486Z,95561.00
2023-06-22T13:55:58.441Z,95487.00
2023-06-22T13:58:27.607Z,95506.00
2023-06-22T14:00:57.131Z,95553.00
2023-06-22T14:03:27.028Z,95504.00
2023-06-22T14:05:57.743Z,95547.00
2023-06-22T14:11:00.159Z,95552.00
2023-06-22T14:13:29.413Z,95554.00
2023-06-22T14:15:58.244Z,95504.00
2023-06-22T14:18:26.869Z,95528.00
2023-06-22T14:20:56.988Z,95530.00
2023-06-22T14:23:27.674Z,95422.00
2023-06-22T14:25:56.683Z,95506.00
2023-06-22T14:28:25.341Z,95509.00
2023-06-22T14:30:54.079Z,95454.00
2023-06-22T14:33:22.838Z,95464.00
2023-06-22T14:35:52.434Z,95517.00
2023-06-22T14:38:22.543Z,95301.00
2023-06-22T14:41:06.491Z,95505.00
2023-06-22T14:43:46.414Z,95412.00
2023-06-22T14:46:16.441Z,95459.00
2023-06-22T14:48:47.825Z,95389.00
2023-06-22T14:51:17.922Z,95497.00
2023-06-22T14:53:48.056Z,95430.00
2023-06-22T14:56:19.501Z,95461.00
2023-06-22T14:58:48.864Z,95469.00
2023-06-22T15:01:20.761Z,95442.00
2023-06-22T15:03:49.411Z,95419.00
2023-06-22T15:06:18.884Z,95395.00
2023-06-22T15:08:47.693Z,95375.00
2023-06-22T15:11:19.326Z,95467.00
2023-06-22T15:13:49.086Z,95470.00
2023-06-22T15:16:17.656Z,95468.00
2023-06-22T15:18:48.967Z,95469.00
2023-06-22T15:21:18.180Z,95458.00
2023-06-22T15:23:49.804Z,95413.00
2023-06-22T15:26:20.202Z,95473.00
2023-06-22T15:28:49.129Z,95469.00
2023-06-22T15:31:19.272Z,95406.00
2023-06-22T15:33:49.592Z,95410.00
2023-06-22T15:36:18.409Z,95453.00
2023-06-22T15:38:48.523Z,95404.00
2023-06-22T15:41:19.979Z,95365.00
2023-06-22T15:43:50.222Z,95350.00
2023-06-22T15:46:20.524Z,95445.00
2023-06-22T15:48:52.491Z,95446.00
2023-06-22T15:51:26.102Z,95458.00
2023-06-22T15:53:56.695Z,95461.00
2023-06-22T15:56:26.964Z,95444.00
2023-06-22T15:58:58.100Z,95448.00
2023-06-22T16:01:27.040Z,95462.00
2023-06-22T16:03:56.579Z,95453.00
2023-06-22T16:06:25.872Z,95408.00
2023-06-22T16:08:55.275Z,95367.00
2023-06-22T16:11:24.104Z,95391.00
2023-06-22T16:13:56.234Z,95233.00
2023-06-22T16:16:26.755Z,95475.00
2023-06-22T16:18:55.630Z,95410.00
2023-06-22T16:21:24.181Z,95454.00
2023-06-22T16:23:53.073Z,95448.00
2023-06-22T16:26:23.001Z,95450.00
2023-06-22T16:28:51.882Z,95458.00
2023-06-22T16:31:21.333Z,95453.00
2023-06-22T16:33:51.563Z,95449.00
2023-06-22T16:36:20.238Z,95437.00
2023-06-22T16:38:48.750Z,95304.00
2023-06-22T16:41:17.406Z,95372.00
2023-06-22T16:43:46.360Z,95377.00
2023-06-22T16:46:14.982Z,95402.00
2023-06-22T16:48:43.664Z,95416.00
2023-06-22T16:51:14.412Z,95434.00
2023-06-22T16:53:44.016Z,95471.00
2023-06-22T16:56:13.161Z,95425.00
2023-06-22T16:58:44.785Z,95469.00
2023-06-22T17:01:18.940Z,95422.00
2023-06-22T17:03:58.744Z,95387.00
2023-06-22T17:06:29.046Z,95305.00
2023-06-22T17:09:02.177Z,95412.00
2023-06-22T17:11:31.794Z,95415.00
2023-06-22T17:14:00.874Z,95115.00
2023-06-22T17:16:34.925Z,95269.00
2023-06-22T17:19:07.198Z,95341.00
2023-06-22T17:21:38.065Z,95409.00
2023-06-22T17:24:07.447Z,95300.00
2023-06-22T17:26:36.367Z,95141.00
2023-06-22T17:29:10.104Z,95384.00
2023-06-22T17:31:41.975Z,95452.00
2023-06-22T17:34:11.807Z,95476.00
2023-06-22T17:36:47.140Z,95511.00
2023-06-22T17:39:17.531Z,95465.00
2023-06-22T17:41:48.507Z,95449.00
2023-06-22T17:44:21.720Z,95437.00
2023-06-22T17:46:54.730Z,95435.00
2023-06-22T17:49:24.594Z,95315.00
2023-06-22T17:51:55.015Z,95476.00
2023-06-22T17:54:34.708Z,95448.00
2023-06-22T17:57:23.811Z,95439.00
2023-06-22T17:59:58.978Z,95430.00
2023-06-22T18:02:32.838Z,95407.00
2023-06-22T18:05:08.789Z,95386.00
2023-06-22T18:08:14.923Z,95463.00
2023-06-22T18:11:40.087Z,95304.00
2023-06-22T18:23:37.399Z,95469.00
2023-06-22T18:26:09.133Z,95490.00
2023-06-22T18:28:46.683Z,95586.00
2023-06-22T18:31:17.585Z,95490.00
2023-06-22T18:33:53.655Z,95694.00
2023-06-22T18:36:29.922Z,95152.00
2023-06-22T18:39:05.732Z,95762.00
2023-06-22T18:41:41.513Z,95240.00
2023-06-22T19:00:48.063Z,95602.00
2023-06-22T19:04:07.400Z,94738.00
2023-06-22T19:11:07.753Z,94918.00
2023-06-22T19:13:50.805Z,95160.00
2023-06-22T19:28:03.131Z,95091.00
2023-06-22T19:30:48.132Z,94927.00
2023-06-22T19:33:21.575Z,95192.00
2023-06-22T19:35:51.912Z,95569.00
2023-06-22T19:45:46.554Z,95563.00
2023-06-22T19:48:20.616Z,95312.00
2023-06-22T19:50:51.655Z,95335.00
2023-06-22T19:53:23.272Z,95545.00
2023-06-22T19:55:54.413Z,94991.00
2023-06-22T19:58:25.418Z,95089.00
2023-06-22T20:01:02.089Z,95508.00
2023-06-22T20:03:34.068Z,95011.00
2023-06-22T20:06:24.448Z,94885.00
2023-06-22T20:09:11.120Z,95528.00
2023-06-22T20:11:45.315Z,95505.00
2023-06-22T20:17:50.322Z,95253.00
2023-06-22T20:20:24.536Z,95693.00
2023-06-22T20:22:53.769Z,95700.00
2023-06-22T20:25:24.535Z,95462.00
2023-06-22T20:27:54.535Z,95488.00
2023-06-22T20:30:27.933Z,94839.00
2023-06-22T20:32:58.812Z,95251.00
2023-06-22T20:35:27.630Z,95496.00
2023-06-22T20:37:58.761Z,95578.00
2023-06-22T20:40:28.902Z,95563.00
2023-06-22T20:42:59.031Z,95560.00
2023-06-22T20:45:31.748Z,95538.00
2023-06-22T20:48:03.303Z,95473.00
2023-06-22T20:50:32.424Z,95530.00
2023-06-22T20:53:01.954Z,95461.00
2023-06-22T20:55:32.520Z,95533.00
2023-06-22T20:58:01.314Z,95566.00
2023-06-22T21:00:31.555Z,95548.00
2023-06-22T21:03:00.848Z,95512.00
2023-06-22T21:05:33.436Z,95523.00
2023-06-22T21:08:02.546Z,95602.00
2023-06-22T21:10:31.234Z,95553.00
2023-06-22T21:13:00.665Z,95593.00
2023-06-22T21:15:29.695Z,95616.00
2023-06-22T21:17:58.791Z,95625.00
2023-06-22T21:20:27.365Z,95565.00
2023-06-22T21:22:57.770Z,95630.00
2023-06-22T21:25:26.639Z,95508.00
2023-06-22T21:27:55.648Z,95661.00
2023-06-22T21:30:24.390Z,95663.00
2023-06-22T21:32:53.279Z,95668.00
2023-06-22T21:35:22.102Z,95651.00
2023-06-22T21:37:50.967Z,95655.00
2023-06-22T21:40:21.400Z,95638.00
2023-06-22T21:42:51.194Z,95652.00
2023-06-22T21:45:19.898Z,95657.00
2023-06-22T21:50:52.987Z,95629.00
2023-06-22T22:56:43.149Z,95210.00
2023-06-22T23:05:24.045Z,95272.00
2023-06-22T23:20:23.913Z,95311.00
2023-06-22T23:22:59.825Z,95784.00
2023-06-22T23:25:38.548Z,95736.00
2023-06-22T23:28:29.236Z,95587.00
2023-06-22T23:31:10.362Z,95735.00
2023-06-22T23:33:41.618Z,95770.00
2023-06-22T23:36:14.590Z,95655.00
2023-06-22T23:38:43.857Z,95842.00
2023-06-22T23:41:15.379Z,95672.00
2023-06-22T23:43:46.524Z,95879.00
2023-06-22T23:46:15.716Z,95797.00
2023-06-22T23:48:46.613Z,95112.00
2023-06-22T23:51:21.342Z,95691.00
2023-06-22T23:53:51.466Z,95814.00
2023-06-22T23:56:22.126Z,95770.00
2023-06-22T23:58:57.800Z,95756.00
